sensor_id;sensor_type;location;lat;lon;timestamp;P1;durP1;ratioP1;P2;durP2;ratioP2
8564;SDS011;4320;51.498;6.556;2022-12-18T00:00:58;19.20;;;10.33;;
8564;SDS011;4320;51.498;6.556;2022-12-18T00:03:23;15.63;;;10.33;;
8564;SDS011;4320;51.498;6.556;2022-12-18T00:05:50;16.63;;;10.20;;
8564;SDS011;4320;51.498;6.556;2022-12-18T00:08:17;19.53;;;10.60;;
8564;SDS011;4320;51.498;6.556;2022-12-18T00:10:44;23.00;;;12.10;;
8564;SDS011;4320;51.498;6.556;2022-12-18T00:13:10;20.33;;;11.70;;
8564;SDS011;4320;51.498;6.556;2022-12-18T00:15:37;16.10;;;9.73;;
8564;SDS011;4320;51.498;6.556;2022-12-18T00:18:03;20.37;;;11.13;;
8564;SDS011;4320;51.498;6.556;2022-12-18T00:20:29;17.10;;;10.70;;
8564;SDS011;4320;51.498;6.556;2022-12-18T00:22:55;19.73;;;10.63;;
8564;SDS011;4320;51.498;6.556;2022-12-18T00:25:21;17.97;;;10.70;;
8564;SDS011;4320;51.498;6.556;2022-12-18T00:27:47;16.73;;;10.03;;
8564;SDS011;4320;51.498;6.556;2022-12-18T00:30:13;21.23;;;10.13;;
8564;SDS011;4320;51.498;6.556;2022-12-18T00:32:39;18.57;;;10.90;;
8564;SDS011;4320;51.498;6.556;2022-12-18T00:35:05;18.23;;;10.27;;
8564;SDS011;4320;51.498;6.556;2022-12-18T00:37:35;19.33;;;10.97;;
8564;SDS011;4320;51.498;6.556;2022-12-18T00:40:01;15.87;;;9.80;;
8564;SDS011;4320;51.498;6.556;2022-12-18T00:42:26;16.17;;;9.87;;
8564;SDS011;4320;51.498;6.556;2022-12-18T00:45:10;18.93;;;10.50;;
8564;SDS011;4320;51.498;6.556;2022-12-18T00:47:36;20.17;;;11.60;;
8564;SDS011;4320;51.498;6.556;2022-12-18T00:50:02;22.93;;;11.97;;
8564;SDS011;4320;51.498;6.556;2022-12-18T00:52:28;18.40;;;10.90;;
8564;SDS011;4320;51.498;6.556;2022-12-18T00:54:53;19.43;;;10.23;;
8564;SDS011;4320;51.498;6.556;2022-12-18T00:57:19;21.27;;;10.93;;
8564;SDS011;4320;51.498;6.556;2022-12-18T00:59:44;17.47;;;9.70;;
8564;SDS011;4320;51.498;6.556;2022-12-18T01:02:10;17.43;;;10.20;;
8564;SDS011;4320;51.498;6.556;2022-12-18T01:04:38;17.57;;;9.53;;
8564;SDS011;4320;51.498;6.556;2022-12-18T01:07:04;14.47;;;9.10;;
8564;SDS011;4320;51.498;6.556;2022-12-18T01:09:29;17.73;;;9.70;;
8564;SDS011;4320;51.498;6.556;2022-12-18T01:11:55;13.40;;;8.60;;
8564;SDS011;4320;51.498;6.556;2022-12-18T01:14:21;13.93;;;8.90;;
8564;SDS011;4320;51.498;6.556;2022-12-18T01:16:47;18.13;;;9.23;;
8564;SDS011;4320;51.498;6.556;2022-12-18T01:19:12;15.90;;;9.10;;
8564;SDS011;4320;51.498;6.556;2022-12-18T01:21:38;15.20;;;9.40;;
8564;SDS011;4320;51.498;6.556;2022-12-18T01:24:04;14.07;;;9.00;;
8564;SDS011;4320;51.498;6.556;2022-12-18T01:26:29;15.20;;;8.67;;
8564;SDS011;4320;51.498;6.556;2022-12-18T01:28:55;16.07;;;9.67;;
8564;SDS011;4320;51.498;6.556;2022-12-18T01:33:55;13.37;;;8.10;;
8564;SDS011;4320;51.498;6.556;2022-12-18T01:38:48;14.27;;;8.47;;
8564;SDS011;4320;51.498;6.556;2022-12-18T01:41:19;14.57;;;8.33;;
8564;SDS011;4320;51.498;6.556;2022-12-18T01:46:18;13.20;;;8.53;;
8564;SDS011;4320;51.498;6.556;2022-12-18T01:48:50;14.57;;;8.57;;
8564;SDS011;4320;51.498;6.556;2022-12-18T01:51:18;14.77;;;8.57;;
8564;SDS011;4320;51.498;6.556;2022-12-18T01:53:44;14.53;;;8.27;;
8564;SDS011;4320;51.498;6.556;2022-12-18T01:56:14;15.00;;;8.03;;
8564;SDS011;4320;51.498;6.556;2022-12-18T01:58:58;15.33;;;8.70;;
8564;SDS011;4320;51.498;6.556;2022-12-18T02:01:28;14.80;;;8.40;;
8564;SDS011;4320;51.498;6.556;2022-12-18T02:03:55;19.43;;;8.20;;
8564;SDS011;4320;51.498;6.556;2022-12-18T02:06:24;13.90;;;8.10;;
8564;SDS011;4320;51.498;6.556;2022-12-18T02:09:00;11.93;;;7.73;;
8564;SDS011;4320;51.498;6.556;2022-12-18T02:11:50;13.17;;;7.73;;
8564;SDS011;4320;51.498;6.556;2022-12-18T02:17:04;13.00;;;7.33;;
8564;SDS011;4320;51.498;6.556;2022-12-18T02:19:57;21.70;;;9.20;;
8564;SDS011;4320;51.498;6.556;2022-12-18T02:28:28;14.37;;;7.70;;
8564;SDS011;4320;51.498;6.556;2022-12-18T02:30:58;13.07;;;8.40;;
8564;SDS011;4320;51.498;6.556;2022-12-18T02:33:27;14.23;;;8.50;;
8564;SDS011;4320;51.498;6.556;2022-12-18T02:35:54;13.87;;;8.57;;
8564;SDS011;4320;51.498;6.556;2022-12-18T02:38:22;15.27;;;9.23;;
8564;SDS011;4320;51.498;6.556;2022-12-18T02:40:50;13.77;;;8.30;;
8564;SDS011;4320;51.498;6.556;2022-12-18T02:43:18;16.43;;;9.60;;
8564;SDS011;4320;51.498;6.556;2022-12-18T02:45:51;17.93;;;10.03;;
8564;SDS011;4320;51.498;6.556;2022-12-18T02:48:22;13.77;;;8.60;;
8564;SDS011;4320;51.498;6.556;2022-12-18T02:51:14;13.97;;;7.90;;
8564;SDS011;4320;51.498;6.556;2022-12-18T02:54:01;17.70;;;8.20;;
8564;SDS011;4320;51.498;6.556;2022-12-18T02:56:38;14.23;;;8.37;;
8564;SDS011;4320;51.498;6.556;2022-12-18T02:59:30;12.73;;;8.83;;
8564;SDS011;4320;51.498;6.556;2022-12-18T03:02:02;10.83;;;7.60;;
8564;SDS011;4320;51.498;6.556;2022-12-18T03:04:34;12.77;;;7.70;;
8564;SDS011;4320;51.498;6.556;2022-12-18T03:07:15;14.00;;;8.67;;
8564;SDS011;4320;51.498;6.556;2022-12-18T03:09:46;14.13;;;8.77;;
8564;SDS011;4320;51.498;6.556;2022-12-18T03:12:20;13.47;;;7.80;;
8564;SDS011;4320;51.498;6.556;2022-12-18T03:17:25;14.60;;;8.27;;
8564;SDS011;4320;51.498;6.556;2022-12-18T03:19:54;12.37;;;7.73;;
8564;SDS011;4320;51.498;6.556;2022-12-18T03:22:23;13.53;;;8.47;;
8564;SDS011;4320;51.498;6.556;2022-12-18T03:24:54;13.53;;;8.93;;
8564;SDS011;4320;51.498;6.556;2022-12-18T03:27:23;11.97;;;8.37;;
8564;SDS011;4320;51.498;6.556;2022-12-18T03:29:59;11.93;;;7.77;;
8564;SDS011;4320;51.498;6.556;2022-12-18T03:32:33;16.37;;;7.80;;
8564;SDS011;4320;51.498;6.556;2022-12-18T03:35:05;13.27;;;7.97;;
8564;SDS011;4320;51.498;6.556;2022-12-18T03:37:34;15.37;;;8.50;;
8564;SDS011;4320;51.498;6.556;2022-12-18T03:40:00;13.87;;;8.60;;
8564;SDS011;4320;51.498;6.556;2022-12-18T03:42:27;12.07;;;8.07;;
8564;SDS011;4320;51.498;6.556;2022-12-18T03:45:03;14.40;;;8.10;;
8564;SDS011;4320;51.498;6.556;2022-12-18T03:47:36;10.60;;;7.33;;
8564;SDS011;4320;51.498;6.556;2022-12-18T03:50:22;14.40;;;7.93;;
8564;SDS011;4320;51.498;6.556;2022-12-18T03:53:22;11.57;;;7.90;;
8564;SDS011;4320;51.498;6.556;2022-12-18T03:56:06;15.60;;;8.70;;
8564;SDS011;4320;51.498;6.556;2022-12-18T03:58:34;13.07;;;7.20;;
8564;SDS011;4320;51.498;6.556;2022-12-18T04:01:03;13.13;;;8.07;;
8564;SDS011;4320;51.498;6.556;2022-12-18T04:03:32;10.90;;;7.43;;
8564;SDS011;4320;51.498;6.556;2022-12-18T04:06:00;11.23;;;7.90;;
8564;SDS011;4320;51.498;6.556;2022-12-18T04:08:27;13.37;;;7.43;;
8564;SDS011;4320;51.498;6.556;2022-12-18T04:10:54;13.17;;;7.53;;
8564;SDS011;4320;51.498;6.556;2022-12-18T04:13:27;13.77;;;7.90;;
8564;SDS011;4320;51.498;6.556;2022-12-18T04:16:01;12.37;;;7.60;;
8564;SDS011;4320;51.498;6.556;2022-12-18T04:18:27;12.77;;;7.83;;
8564;SDS011;4320;51.498;6.556;2022-12-18T04:20:52;11.00;;;6.47;;
8564;SDS011;4320;51.498;6.556;2022-12-18T04:23:18;13.60;;;7.30;;
8564;SDS011;4320;51.498;6.556;2022-12-18T04:25:43;11.20;;;7.47;;
8564;SDS011;4320;51.498;6.556;2022-12-18T04:28:10;11.23;;;7.13;;
8564;SDS011;4320;51.498;6.556;2022-12-18T04:30:35;12.77;;;7.73;;
8564;SDS011;4320;51.498;6.556;2022-12-18T04:33:01;11.50;;;7.40;;
8564;SDS011;4320;51.498;6.556;2022-12-18T04:35:27;13.57;;;7.53;;
8564;SDS011;4320;51.498;6.556;2022-12-18T04:37:52;11.87;;;7.63;;
8564;SDS011;4320;51.498;6.556;2022-12-18T04:40:18;11.80;;;7.03;;
8564;SDS011;4320;51.498;6.556;2022-12-18T04:42:43;11.10;;;6.73;;
8564;SDS011;4320;51.498;6.556;2022-12-18T04:45:09;12.33;;;7.40;;
8564;SDS011;4320;51.498;6.556;2022-12-18T04:47:35;10.30;;;6.40;;
8564;SDS011;4320;51.498;6.556;2022-12-18T04:50:01;10.57;;;7.00;;
8564;SDS011;4320;51.498;6.556;2022-12-18T04:52:26;9.90;;;6.50;;
8564;SDS011;4320;51.498;6.556;2022-12-18T04:54:52;7.43;;;6.00;;
8564;SDS011;4320;51.498;6.556;2022-12-18T04:57:17;9.57;;;6.83;;
8564;SDS011;4320;51.498;6.556;2022-12-18T04:59:43;9.83;;;6.33;;
8564;SDS011;4320;51.498;6.556;2022-12-18T05:02:09;10.73;;;6.33;;
8564;SDS011;4320;51.498;6.556;2022-12-18T05:04:35;9.27;;;5.87;;
8564;SDS011;4320;51.498;6.556;2022-12-18T05:07:01;12.07;;;6.27;;
8564;SDS011;4320;51.498;6.556;2022-12-18T05:09:26;9.37;;;6.00;;
8564;SDS011;4320;51.498;6.556;2022-12-18T05:11:52;10.10;;;6.57;;
8564;SDS011;4320;51.498;6.556;2022-12-18T05:14:18;9.47;;;5.97;;
8564;SDS011;4320;51.498;6.556;2022-12-18T05:16:47;10.20;;;6.30;;
8564;SDS011;4320;51.498;6.556;2022-12-18T05:19:12;12.40;;;6.60;;
8564;SDS011;4320;51.498;6.556;2022-12-18T05:21:38;9.93;;;6.47;;
8564;SDS011;4320;51.498;6.556;2022-12-18T05:24:04;10.03;;;6.93;;
8564;SDS011;4320;51.498;6.556;2022-12-18T05:26:30;12.53;;;7.27;;
8564;SDS011;4320;51.498;6.556;2022-12-18T05:28:55;10.67;;;6.83;;
8564;SDS011;4320;51.498;6.556;2022-12-18T05:31:21;9.03;;;5.20;;
8564;SDS011;4320;51.498;6.556;2022-12-18T05:33:47;10.50;;;6.97;;
8564;SDS011;4320;51.498;6.556;2022-12-18T05:36:15;11.20;;;6.47;;
8564;SDS011;4320;51.498;6.556;2022-12-18T05:38:41;9.03;;;6.13;;
8564;SDS011;4320;51.498;6.556;2022-12-18T05:41:07;11.50;;;6.20;;
8564;SDS011;4320;51.498;6.556;2022-12-18T05:43:34;10.07;;;5.93;;
8564;SDS011;4320;51.498;6.556;2022-12-18T05:46:05;9.23;;;6.03;;
8564;SDS011;4320;51.498;6.556;2022-12-18T05:48:32;10.27;;;6.93;;
8564;SDS011;4320;51.498;6.556;2022-12-18T05:51:03;9.03;;;5.83;;
8564;SDS011;4320;51.498;6.556;2022-12-18T05:53:30;10.77;;;6.73;;
8564;SDS011;4320;51.498;6.556;2022-12-18T05:55:59;10.20;;;6.20;;
8564;SDS011;4320;51.498;6.556;2022-12-18T05:58:26;7.67;;;6.10;;
8564;SDS011;4320;51.498;6.556;2022-12-18T06:00:52;9.33;;;6.10;;
8564;SDS011;4320;51.498;6.556;2022-12-18T06:03:17;10.10;;;6.37;;
8564;SDS011;4320;51.498;6.556;2022-12-18T06:05:44;9.50;;;6.03;;
8564;SDS011;4320;51.498;6.556;2022-12-18T06:08:10;10.47;;;5.90;;
8564;SDS011;4320;51.498;6.556;2022-12-18T06:10:40;11.00;;;6.27;;
8564;SDS011;4320;51.498;6.556;2022-12-18T06:13:06;10.10;;;6.43;;
8564;SDS011;4320;51.498;6.556;2022-12-18T06:15:32;11.97;;;5.80;;
8564;SDS011;4320;51.498;6.556;2022-12-18T06:18:00;9.47;;;6.17;;
8564;SDS011;4320;51.498;6.556;2022-12-18T06:20:26;8.00;;;5.33;;
8564;SDS011;4320;51.498;6.556;2022-12-18T06:22:52;10.77;;;6.33;;
8564;SDS011;4320;51.498;6.556;2022-12-18T06:25:18;9.37;;;5.37;;
8564;SDS011;4320;51.498;6.556;2022-12-18T06:27:43;9.20;;;6.07;;
8564;SDS011;4320;51.498;6.556;2022-12-18T06:30:09;10.63;;;6.43;;
8564;SDS011;4320;51.498;6.556;2022-12-18T06:32:35;11.07;;;6.07;;
8564;SDS011;4320;51.498;6.556;2022-12-18T06:35:01;10.03;;;5.70;;
8564;SDS011;4320;51.498;6.556;2022-12-18T06:37:27;10.00;;;6.27;;
8564;SDS011;4320;51.498;6.556;2022-12-18T06:39:53;10.10;;;5.43;;
8564;SDS011;4320;51.498;6.556;2022-12-18T06:42:19;8.83;;;6.00;;
8564;SDS011;4320;51.498;6.556;2022-12-18T06:44:47;10.33;;;6.70;;
8564;SDS011;4320;51.498;6.556;2022-12-18T06:47:13;11.07;;;6.37;;
8564;SDS011;4320;51.498;6.556;2022-12-18T06:49:38;11.30;;;6.00;;
8564;SDS011;4320;51.498;6.556;2022-12-18T06:52:04;11.20;;;6.33;;
8564;SDS011;4320;51.498;6.556;2022-12-18T06:54:29;9.77;;;6.20;;
8564;SDS011;4320;51.498;6.556;2022-12-18T06:56:55;9.53;;;6.00;;
8564;SDS011;4320;51.498;6.556;2022-12-18T06:59:21;10.43;;;6.20;;
8564;SDS011;4320;51.498;6.556;2022-12-18T07:01:46;9.43;;;6.07;;
8564;SDS011;4320;51.498;6.556;2022-12-18T07:04:12;13.07;;;6.43;;
8564;SDS011;4320;51.498;6.556;2022-12-18T07:06:38;10.53;;;6.30;;
8564;SDS011;4320;51.498;6.556;2022-12-18T07:09:03;11.67;;;7.20;;
8564;SDS011;4320;51.498;6.556;2022-12-18T07:11:29;12.93;;;7.03;;
8564;SDS011;4320;51.498;6.556;2022-12-18T07:13:57;8.57;;;5.60;;
8564;SDS011;4320;51.498;6.556;2022-12-18T07:16:26;7.40;;;4.33;;
8564;SDS011;4320;51.498;6.556;2022-12-18T07:18:54;8.10;;;4.73;;
8564;SDS011;4320;51.498;6.556;2022-12-18T07:21:21;10.47;;;5.47;;
8564;SDS011;4320;51.498;6.556;2022-12-18T07:23:47;11.67;;;6.33;;
8564;SDS011;4320;51.498;6.556;2022-12-18T07:26:13;9.73;;;5.67;;
8564;SDS011;4320;51.498;6.556;2022-12-18T07:28:41;10.23;;;6.50;;
8564;SDS011;4320;51.498;6.556;2022-12-18T07:31:08;8.50;;;5.53;;
8564;SDS011;4320;51.498;6.556;2022-12-18T07:33:36;9.57;;;5.73;;
8564;SDS011;4320;51.498;6.556;2022-12-18T07:36:02;7.47;;;5.60;;
8564;SDS011;4320;51.498;6.556;2022-12-18T07:38:29;8.87;;;5.50;;
8564;SDS011;4320;51.498;6.556;2022-12-18T07:41:02;9.83;;;5.43;;
8564;SDS011;4320;51.498;6.556;2022-12-18T07:43:29;10.03;;;5.87;;
8564;SDS011;4320;51.498;6.556;2022-12-18T07:45:55;10.47;;;6.03;;
8564;SDS011;4320;51.498;6.556;2022-12-18T07:48:20;10.97;;;6.03;;
8564;SDS011;4320;51.498;6.556;2022-12-18T07:50:46;11.77;;;6.13;;
8564;SDS011;4320;51.498;6.556;2022-12-18T07:53:12;11.40;;;6.03;;
8564;SDS011;4320;51.498;6.556;2022-12-18T07:55:37;8.47;;;5.43;;
8564;SDS011;4320;51.498;6.556;2022-12-18T07:58:03;10.67;;;6.33;;
8564;SDS011;4320;51.498;6.556;2022-12-18T08:00:29;8.90;;;5.33;;
8564;SDS011;4320;51.498;6.556;2022-12-18T08:02:56;12.23;;;7.13;;
8564;SDS011;4320;51.498;6.556;2022-12-18T08:05:22;10.53;;;6.73;;
8564;SDS011;4320;51.498;6.556;2022-12-18T08:07:47;11.00;;;7.03;;
8564;SDS011;4320;51.498;6.556;2022-12-18T08:10:13;10.80;;;6.37;;
8564;SDS011;4320;51.498;6.556;2022-12-18T08:12:39;9.97;;;5.97;;
8564;SDS011;4320;51.498;6.556;2022-12-18T08:15:04;12.20;;;7.07;;
8564;SDS011;4320;51.498;6.556;2022-12-18T08:17:31;10.37;;;5.97;;
8564;SDS011;4320;51.498;6.556;2022-12-18T08:19:56;13.77;;;7.40;;
8564;SDS011;4320;51.498;6.556;2022-12-18T08:22:22;11.03;;;6.23;;
8564;SDS011;4320;51.498;6.556;2022-12-18T08:24:47;10.07;;;6.77;;
8564;SDS011;4320;51.498;6.556;2022-12-18T08:27:13;7.53;;;4.30;;
8564;SDS011;4320;51.498;6.556;2022-12-18T08:29:39;9.23;;;5.90;;
8564;SDS011;4320;51.498;6.556;2022-12-18T08:32:04;9.40;;;6.00;;
8564;SDS011;4320;51.498;6.556;2022-12-18T08:34:30;9.57;;;5.87;;
8564;SDS011;4320;51.498;6.556;2022-12-18T08:36:55;10.23;;;6.00;;
8564;SDS011;4320;51.498;6.556;2022-12-18T08:39:21;11.17;;;6.67;;
8564;SDS011;4320;51.498;6.556;2022-12-18T08:41:47;10.87;;;6.20;;
8564;SDS011;4320;51.498;6.556;2022-12-18T08:44:32;10.50;;;6.07;;
8564;SDS011;4320;51.498;6.556;2022-12-18T08:47:05;9.33;;;5.97;;
8564;SDS011;4320;51.498;6.556;2022-12-18T08:49:31;13.33;;;8.03;;
8564;SDS011;4320;51.498;6.556;2022-12-18T08:51:57;10.60;;;5.90;;
8564;SDS011;4320;51.498;6.556;2022-12-18T08:54:23;9.73;;;6.13;;
8564;SDS011;4320;51.498;6.556;2022-12-18T08:56:49;11.10;;;6.77;;
8564;SDS011;4320;51.498;6.556;2022-12-18T08:59:18;10.53;;;7.33;;
8564;SDS011;4320;51.498;6.556;2022-12-18T09:01:45;9.60;;;6.47;;
8564;SDS011;4320;51.498;6.556;2022-12-18T09:04:11;10.27;;;5.87;;
8564;SDS011;4320;51.498;6.556;2022-12-18T09:06:38;10.53;;;6.40;;
8564;SDS011;4320;51.498;6.556;2022-12-18T09:09:05;8.63;;;5.77;;
8564;SDS011;4320;51.498;6.556;2022-12-18T09:11:31;9.57;;;6.00;;
8564;SDS011;4320;51.498;6.556;2022-12-18T09:13:58;10.10;;;6.60;;
8564;SDS011;4320;51.498;6.556;2022-12-18T09:16:25;9.40;;;6.30;;
8564;SDS011;4320;51.498;6.556;2022-12-18T09:18:54;10.43;;;5.60;;
8564;SDS011;4320;51.498;6.556;2022-12-18T09:21:24;13.73;;;6.67;;
8564;SDS011;4320;51.498;6.556;2022-12-18T09:23:55;11.13;;;6.57;;
8564;SDS011;4320;51.498;6.556;2022-12-18T09:26:21;12.60;;;6.33;;
8564;SDS011;4320;51.498;6.556;2022-12-18T09:28:48;11.07;;;6.73;;
8564;SDS011;4320;51.498;6.556;2022-12-18T09:31:17;7.60;;;5.40;;
8564;SDS011;4320;51.498;6.556;2022-12-18T09:33:44;10.53;;;6.00;;
8564;SDS011;4320;51.498;6.556;2022-12-18T09:36:11;9.83;;;5.80;;
8564;SDS011;4320;51.498;6.556;2022-12-18T09:38:38;12.10;;;6.47;;
8564;SDS011;4320;51.498;6.556;2022-12-18T09:41:05;9.37;;;6.30;;
8564;SDS011;4320;51.498;6.556;2022-12-18T09:43:51;11.73;;;6.33;;
8564;SDS011;4320;51.498;6.556;2022-12-18T09:46:28;9.43;;;6.63;;
8564;SDS011;4320;51.498;6.556;2022-12-18T09:48:57;12.30;;;7.07;;
8564;SDS011;4320;51.498;6.556;2022-12-18T09:51:28;9.87;;;6.70;;
8564;SDS011;4320;51.498;6.556;2022-12-18T09:53:59;8.83;;;5.63;;
8564;SDS011;4320;51.498;6.556;2022-12-18T09:56:34;10.77;;;5.43;;
8564;SDS011;4320;51.498;6.556;2022-12-18T09:59:04;9.83;;;6.23;;
8564;SDS011;4320;51.498;6.556;2022-12-18T10:01:30;11.83;;;6.53;;
8564;SDS011;4320;51.498;6.556;2022-12-18T10:03:57;10.13;;;6.30;;
8564;SDS011;4320;51.498;6.556;2022-12-18T10:09:10;10.80;;;6.00;;
8564;SDS011;4320;51.498;6.556;2022-12-18T10:20:38;17.70;;;7.87;;
8564;SDS011;4320;51.498;6.556;2022-12-18T10:26:08;12.63;;;8.67;;
8564;SDS011;4320;51.498;6.556;2022-12-18T10:28:37;10.47;;;6.57;;
8564;SDS011;4320;51.498;6.556;2022-12-18T10:31:14;14.37;;;7.17;;
8564;SDS011;4320;51.498;6.556;2022-12-18T10:33:42;13.73;;;7.63;;
8564;SDS011;4320;51.498;6.556;2022-12-18T10:36:08;11.47;;;8.03;;
8564;SDS011;4320;51.498;6.556;2022-12-18T10:38:34;7.07;;;4.73;;
8564;SDS011;4320;51.498;6.556;2022-12-18T10:41:06;13.33;;;9.17;;
8564;SDS011;4320;51.498;6.556;2022-12-18T10:43:43;10.33;;;5.83;;
8564;SDS011;4320;51.498;6.556;2022-12-18T10:51:19;8.77;;;5.57;;
8564;SDS011;4320;51.498;6.556;2022-12-18T10:54:05;9.43;;;6.43;;
8564;SDS011;4320;51.498;6.556;2022-12-18T10:56:39;10.23;;;6.63;;
8564;SDS011;4320;51.498;6.556;2022-12-18T10:59:07;10.83;;;6.07;;
8564;SDS011;4320;51.498;6.556;2022-12-18T11:01:52;10.83;;;6.67;;
8564;SDS011;4320;51.498;6.556;2022-12-18T11:04:34;10.07;;;6.33;;
8564;SDS011;4320;51.498;6.556;2022-12-18T11:11:56;15.60;;;6.17;;
8564;SDS011;4320;51.498;6.556;2022-12-18T11:14:29;11.83;;;6.63;;
8564;SDS011;4320;51.498;6.556;2022-12-18T11:16:59;12.67;;;6.90;;
8564;SDS011;4320;51.498;6.556;2022-12-18T11:21:56;12.33;;;7.40;;
8564;SDS011;4320;51.498;6.556;2022-12-18T11:26:49;10.20;;;7.63;;
8564;SDS011;4320;51.498;6.556;2022-12-18T11:29:20;12.23;;;7.30;;
8564;SDS011;4320;51.498;6.556;2022-12-18T11:34:39;10.90;;;6.80;;
8564;SDS011;4320;51.498;6.556;2022-12-18T11:37:09;11.63;;;7.60;;
8564;SDS011;4320;51.498;6.556;2022-12-18T11:39:45;13.10;;;7.43;;
8564;SDS011;4320;51.498;6.556;2022-12-18T11:44:49;12.70;;;8.07;;
8564;SDS011;4320;51.498;6.556;2022-12-18T11:47:28;11.33;;;7.60;;
8564;SDS011;4320;51.498;6.556;2022-12-18T11:49:56;15.40;;;8.03;;
8564;SDS011;4320;51.498;6.556;2022-12-18T11:52:33;12.17;;;7.47;;
8564;SDS011;4320;51.498;6.556;2022-12-18T11:55:11;11.80;;;7.13;;
8564;SDS011;4320;51.498;6.556;2022-12-18T12:00:12;11.37;;;6.77;;
8564;SDS011;4320;51.498;6.556;2022-12-18T12:05:41;12.23;;;7.13;;
8564;SDS011;4320;51.498;6.556;2022-12-18T12:11:23;10.50;;;7.03;;
8564;SDS011;4320;51.498;6.556;2022-12-18T12:14:02;13.80;;;8.97;;
8564;SDS011;4320;51.498;6.556;2022-12-18T12:21:55;11.30;;;7.40;;
8564;SDS011;4320;51.498;6.556;2022-12-18T12:27:36;12.43;;;8.17;;
8564;SDS011;4320;51.498;6.556;2022-12-18T12:30:16;9.87;;;6.87;;
8564;SDS011;4320;51.498;6.556;2022-12-18T12:35:52;14.07;;;7.90;;
8564;SDS011;4320;51.498;6.556;2022-12-18T12:41:16;14.10;;;7.93;;
8564;SDS011;4320;51.498;6.556;2022-12-18T12:44:05;14.73;;;8.00;;
8564;SDS011;4320;51.498;6.556;2022-12-18T12:46:35;14.67;;;8.80;;
8564;SDS011;4320;51.498;6.556;2022-12-18T12:49:09;14.57;;;8.53;;
8564;SDS011;4320;51.498;6.556;2022-12-18T12:51:40;16.27;;;7.87;;
8564;SDS011;4320;51.498;6.556;2022-12-18T12:54:16;12.63;;;8.27;;
8564;SDS011;4320;51.498;6.556;2022-12-18T13:07:53;13.47;;;7.83;;
8564;SDS011;4320;51.498;6.556;2022-12-18T13:10:23;13.77;;;8.63;;
8564;SDS011;4320;51.498;6.556;2022-12-18T13:12:55;15.93;;;9.30;;
8564;SDS011;4320;51.498;6.556;2022-12-18T13:15:23;13.40;;;7.77;;
8564;SDS011;4320;51.498;6.556;2022-12-18T13:18:20;14.73;;;8.80;;
8564;SDS011;4320;51.498;6.556;2022-12-18T13:25:51;18.70;;;9.27;;
8564;SDS011;4320;51.498;6.556;2022-12-18T13:30:56;20.30;;;12.87;;
8564;SDS011;4320;51.498;6.556;2022-12-18T13:40:58;15.57;;;9.37;;
8564;SDS011;4320;51.498;6.556;2022-12-18T13:46:05;16.73;;;9.07;;
8564;SDS011;4320;51.498;6.556;2022-12-18T13:49:01;16.00;;;7.93;;
8564;SDS011;4320;51.498;6.556;2022-12-18T13:51:47;13.23;;;8.87;;
8564;SDS011;4320;51.498;6.556;2022-12-18T13:57:02;19.30;;;9.33;;
8564;SDS011;4320;51.498;6.556;2022-12-18T14:02:12;15.37;;;9.40;;
8564;SDS011;4320;51.498;6.556;2022-12-18T14:04:39;16.00;;;8.83;;
8564;SDS011;4320;51.498;6.556;2022-12-18T14:07:06;14.57;;;9.90;;
8564;SDS011;4320;51.498;6.556;2022-12-18T14:09:36;16.07;;;10.43;;
8564;SDS011;4320;51.498;6.556;2022-12-18T14:12:05;16.00;;;8.93;;
8564;SDS011;4320;51.498;6.556;2022-12-18T14:14:50;17.50;;;10.50;;
8564;SDS011;4320;51.498;6.556;2022-12-18T14:17:17;17.57;;;10.60;;
8564;SDS011;4320;51.498;6.556;2022-12-18T14:19:44;16.90;;;9.70;;
8564;SDS011;4320;51.498;6.556;2022-12-18T14:22:20;15.53;;;10.07;;
8564;SDS011;4320;51.498;6.556;2022-12-18T14:27:37;16.50;;;9.87;;
8564;SDS011;4320;51.498;6.556;2022-12-18T14:32:59;16.83;;;9.33;;
8564;SDS011;4320;51.498;6.556;2022-12-18T14:35:25;17.50;;;7.87;;
8564;SDS011;4320;51.498;6.556;2022-12-18T14:37:51;14.93;;;9.90;;
8564;SDS011;4320;51.498;6.556;2022-12-18T14:40:16;18.77;;;10.93;;
8564;SDS011;4320;51.498;6.556;2022-12-18T14:42:42;17.90;;;9.57;;
8564;SDS011;4320;51.498;6.556;2022-12-18T14:50:44;18.47;;;9.30;;
8564;SDS011;4320;51.498;6.556;2022-12-18T14:53:19;16.77;;;10.77;;
8564;SDS011;4320;51.498;6.556;2022-12-18T14:55:48;17.73;;;10.37;;
8564;SDS011;4320;51.498;6.556;2022-12-18T14:58:15;18.90;;;11.97;;
8564;SDS011;4320;51.498;6.556;2022-12-18T15:00:43;24.20;;;12.50;;
8564;SDS011;4320;51.498;6.556;2022-12-18T15:03:08;20.10;;;12.03;;
8564;SDS011;4320;51.498;6.556;2022-12-18T15:05:35;17.23;;;10.83;;
8564;SDS011;4320;51.498;6.556;2022-12-18T15:08:01;16.33;;;9.50;;
8564;SDS011;4320;51.498;6.556;2022-12-18T15:34:08;18.63;;;11.83;;
8564;SDS011;4320;51.498;6.556;2022-12-18T15:36:37;18.07;;;10.87;;
8564;SDS011;4320;51.498;6.556;2022-12-18T15:39:03;20.70;;;12.20;;
8564;SDS011;4320;51.498;6.556;2022-12-18T15:41:30;22.33;;;12.77;;
8564;SDS011;4320;51.498;6.556;2022-12-18T15:43:58;20.83;;;12.10;;
8564;SDS011;4320;51.498;6.556;2022-12-18T15:46:24;19.40;;;12.00;;
8564;SDS011;4320;51.498;6.556;2022-12-18T15:48:55;17.23;;;11.53;;
8564;SDS011;4320;51.498;6.556;2022-12-18T15:53:54;22.33;;;12.13;;
8564;SDS011;4320;51.498;6.556;2022-12-18T15:56:21;21.17;;;12.30;;
8564;SDS011;4320;51.498;6.556;2022-12-18T15:59:13;20.00;;;11.57;;
8564;SDS011;4320;51.498;6.556;2022-12-18T16:01:41;25.73;;;11.67;;
8564;SDS011;4320;51.498;6.556;2022-12-18T16:04:13;27.60;;;12.80;;
8564;SDS011;4320;51.498;6.556;2022-12-18T16:06:40;19.67;;;11.50;;
8564;SDS011;4320;51.498;6.556;2022-12-18T16:09:06;22.10;;;13.17;;
8564;SDS011;4320;51.498;6.556;2022-12-18T16:11:32;20.23;;;12.70;;
8564;SDS011;4320;51.498;6.556;2022-12-18T16:14:07;19.43;;;11.83;;
8564;SDS011;4320;51.498;6.556;2022-12-18T16:16:45;18.27;;;11.80;;
8564;SDS011;4320;51.498;6.556;2022-12-18T16:19:12;22.13;;;11.77;;
8564;SDS011;4320;51.498;6.556;2022-12-18T16:21:38;20.17;;;12.27;;
8564;SDS011;4320;51.498;6.556;2022-12-18T16:24:04;19.17;;;11.67;;
8564;SDS011;4320;51.498;6.556;2022-12-18T16:26:29;23.50;;;12.97;;
8564;SDS011;4320;51.498;6.556;2022-12-18T16:28:58;22.43;;;12.67;;
8564;SDS011;4320;51.498;6.556;2022-12-18T16:31:23;24.70;;;13.33;;
8564;SDS011;4320;51.498;6.556;2022-12-18T16:33:49;24.90;;;12.10;;
8564;SDS011;4320;51.498;6.556;2022-12-18T16:36:34;21.47;;;11.97;;
8564;SDS011;4320;51.498;6.556;2022-12-18T16:39:02;24.80;;;13.03;;
8564;SDS011;4320;51.498;6.556;2022-12-18T16:41:28;25.53;;;12.57;;
8564;SDS011;4320;51.498;6.556;2022-12-18T16:43:57;23.60;;;12.20;;
8564;SDS011;4320;51.498;6.556;2022-12-18T16:46:23;21.77;;;12.93;;
8564;SDS011;4320;51.498;6.556;2022-12-18T16:48:49;21.37;;;12.97;;
8564;SDS011;4320;51.498;6.556;2022-12-18T16:51:15;22.70;;;12.77;;
8564;SDS011;4320;51.498;6.556;2022-12-18T16:53:40;25.37;;;13.83;;
8564;SDS011;4320;51.498;6.556;2022-12-18T16:56:06;21.70;;;13.20;;
8564;SDS011;4320;51.498;6.556;2022-12-18T16:58:32;22.73;;;13.50;;
8564;SDS011;4320;51.498;6.556;2022-12-18T17:00:58;23.53;;;14.00;;
8564;SDS011;4320;51.498;6.556;2022-12-18T17:03:24;24.40;;;13.20;;
8564;SDS011;4320;51.498;6.556;2022-12-18T17:05:49;20.03;;;11.37;;
8564;SDS011;4320;51.498;6.556;2022-12-18T17:08:15;24.93;;;14.30;;
8564;SDS011;4320;51.498;6.556;2022-12-18T17:10:41;19.33;;;11.57;;
8564;SDS011;4320;51.498;6.556;2022-12-18T17:13:06;21.57;;;13.73;;
8564;SDS011;4320;51.498;6.556;2022-12-18T17:15:35;24.90;;;14.77;;
8564;SDS011;4320;51.498;6.556;2022-12-18T17:18:01;28.17;;;15.10;;
8564;SDS011;4320;51.498;6.556;2022-12-18T17:20:29;23.03;;;14.00;;
8564;SDS011;4320;51.498;6.556;2022-12-18T17:22:55;29.43;;;14.83;;
8564;SDS011;4320;51.498;6.556;2022-12-18T17:25:23;26.10;;;14.57;;
8564;SDS011;4320;51.498;6.556;2022-12-18T17:27:49;24.30;;;12.40;;
8564;SDS011;4320;51.498;6.556;2022-12-18T17:30:15;26.83;;;15.27;;
8564;SDS011;4320;51.498;6.556;2022-12-18T17:32:41;30.70;;;15.03;;
8564;SDS011;4320;51.498;6.556;2022-12-18T17:35:07;22.83;;;13.77;;
8564;SDS011;4320;51.498;6.556;2022-12-18T17:37:33;25.00;;;13.93;;
8564;SDS011;4320;51.498;6.556;2022-12-18T17:39:58;24.70;;;15.33;;